NCAR-RAP Real-Time Weather Data

Output produced by METARs form (23 February 2020  01:57 UTC)
found at http://weather.rap.ucar.edu/surface/
 
KBNA 230153Z 18003KT 10SM R02L/5500V6000FT SCT250 05/M05 A3032 RMK AO2 SLP271 T00501050
KBNA 230053Z 19004KT 10SM SCT250 07/M06 A3032 RMK AO2 SLP270 T00671061
KBNA 222353Z 18004KT 10SM BKN250 09/M07 A3032 RMK AO2 SLP270 T00941072 10122 20089 56013
KBNA 222253Z 21004KT 10SM BKN250 11/M07 A3032 RMK AO2 SLP272 T01061072
KBNA 222153Z 20005KT 10SM BKN250 12/M09 A3034 RMK AO2 SLP277 T01171094
KBNA 222053Z 19003KT 10SM BKN250 12/M10 A3036 RMK AO2 SLP282 T01171100 56031
KBNA 221953Z 18003KT 10SM FEW150 BKN250 11/M11 A3038 RMK AO2 SLP291 T01111106
KBNA 221853Z 28005KT 10SM SCT180 11/M09 A3041 RMK AO2 SLP301 T01061089
KBNA 221753Z VRB03KT 10SM BKN250 09/M09 A3045 RMK AO2 SLP314 T00891089 10089 21061 58017
KBNA 221653Z 33003KT 10SM FEW180 SCT250 08/M08 A3048 RMK AO2 SLP326 T00831083
KBNA 221553Z 17005KT 10SM FEW180 SCT250 05/M09 A3049 RMK AO2 SLP330 T00501089
KBNA 221453Z VRB03KT 10SM FEW250 02/M06 A3050 RMK AO2 SLP332 T00171061 50003
KBNA 221353Z 17003KT 10SM FEW025 M02/M05 A3050 RMK AO2 SLP334 T10221050
KBNA 221253Z 17004KT 10SM BCFG FEW025 M06/M08 A3049 RMK AO2 SLP331 T10561083
KBNA 221153Z 00000KT 10SM CLR M05/M08 A3049 RMK AO2 SLP330 T10501083 11022 21056 53008
KBNA 221053Z 20003KT 10SM CLR M06/M08 A3048 RMK AO2 SLP327 T10561083
KBNA 220953Z 19003KT 10SM CLR M05/M08 A3047 RMK AO2 SLP322 T10501083
KBNA 220853Z 18003KT 10SM CLR M04/M08 A3047 RMK AO2 SLP321 T10441078 58010
KBNA 220753Z 00000KT 10SM CLR M04/M08 A3049 RMK AO2 SLP328 T10391078
KBNA 220653Z 18004KT 10SM CLR M03/M07 A3049 RMK AO2 SLP329 T10331072
KBNA 220553Z 00000KT 10SM CLR M02/M08 A3050 RMK AO2 SLP332 T10221078 10022 21022 400671050 58013
KBNA 220453Z 00000KT 10SM CLR M02/M09 A3053 RMK AO2 SLP342 T10171089
KBNA 220353Z 00000KT 10SM CLR M01/M09 A3054 RMK AO2 SLP345 T10111094
KBNA 220253Z 36003KT 10SM CLR 01/M10 A3053 RMK AO2 SLP345 T00111100 56008
KBNA 220153Z 01005KT 10SM CLR 01/M10 A3054 RMK AO2 SLP346 T00111100
KBNA 220053Z 02006KT 10SM CLR 02/M09 A3055 RMK AO2 SLP350 T00171094
KBNA 212353Z 02007KT 10SM CLR 02/M11 A3056 RMK AO2 SLP354 T00221106 10067 20022 58001
KBNA 212253Z 02006KT 10SM CLR 06/M12 A3056 RMK AO2 SLP352 T00561117
KBNA 212153Z 36004KT 10SM CLR 06/M13 A3056 RMK AO2 SLP355 T00611128
KBNA 212053Z 03008KT 10SM CLR 06/M12 A3056 RMK AO2 SLP354 T00611122 56031
KBNA 211953Z 01005KT 10SM CLR 05/M12 A3058 RMK AO2 SLP361 T00501122
KBNA 211853Z 36007KT 10SM CLR 03/M12 A3062 RMK AO2 SLP373 T00331117
KBNA 211753Z 03006KT 10SM CLR 03/M11 A3065 RMK AO2 SLP385 T00281111 10028 21050 58004
KBNA 211653Z 01007KT 10SM CLR 01/M11 A3068 RMK AO2 SLP392 T00111111
KBNA 211553Z 02006KT 10SM CLR 00/M12 A3068 RMK AO2 SLP394 T00001117
KBNA 211453Z 04010KT 10SM CLR M02/M12 A3067 RMK AO2 SLP390 T10171122 51017
KBNA 211353Z 02010KT 10SM CLR M03/M11 A3066 RMK AO2 SLP387 T10281111
KBNA 211253Z 02010KT 10SM CLR M04/M11 A3064 RMK AO2 SLP380 T10441111
KBNA 211153Z 02010KT 10SM CLR M05/M11 A3062 RMK AO2 SLP373 70016 T10501111 11011 21050 53013
KBNA 211053Z 02010KT 10SM CLR M04/M11 A3060 RMK AO2 SLP368 T10441106
KBNA 210953Z 01010KT 10SM CLR M04/M11 A3058 RMK AO2 SLP361 T10391106
KBNA 210853Z 02010KT 10SM CLR M04/M10 A3058 RMK AO2 SLP360 T10391100 50003
KBNA 210753Z 36010KT 10SM CLR M03/M09 A3058 RMK AO2 SLP362 T10281094
KBNA 210653Z 36010KT 10SM CLR M02/M09 A3058 RMK AO2 SLP360 T10171089
KBNA 210553Z 01011G20KT 10SM CLR M01/M08 A3057 RMK AO2 SLP357 T10111083 10039 21011 400611011 51016
KBNA 210453Z 35012G21KT 10SM CLR 00/M07 A3056 RMK AO2 SLP354 T00001072
KBNA 210353Z 34010KT 10SM CLR 01/M07 A3054 RMK AO2 SLP345 T00061067
KBNA 210253Z 34012G19KT 10SM FEW050 02/M06 A3052 RMK AO2 SLP340 T00171061 53020